createdAt,value
2023-04-26T00:00:10.310Z,100581.41
2023-04-26T00:05:14.861Z,100592.50
2023-04-26T00:10:17.968Z,100583.69
2023-04-26T00:15:22.553Z,100592.97
2023-04-26T00:20:25.291Z,100587.09
2023-04-26T00:25:34.120Z,100582.28
2023-04-26T00:30:41.522Z,100587.94
2023-04-26T00:35:47.716Z,100582.69
2023-04-26T00:40:51.092Z,100589.00
2023-04-26T00:45:54.422Z,100592.84
2023-04-26T00:50:57.499Z,100584.66
2023-04-26T00:56:00.578Z,100592.31
2023-04-26T01:01:03.621Z,100595.03
2023-04-26T01:06:06.869Z,100601.84
2023-04-26T01:11:12.984Z,100592.19
2023-04-26T01:16:16.632Z,100596.91
2023-04-26T01:21:23.613Z,100595.72
2023-04-26T01:26:27.529Z,100601.44
2023-04-26T01:31:30.330Z,100594.88
2023-04-26T01:36:33.984Z,100610.41
2023-04-26T01:41:37.107Z,100617.19
2023-04-26T01:46:40.016Z,100602.16
2023-04-26T01:51:42.997Z,100608.66
2023-04-26T01:56:45.811Z,100611.72
2023-04-26T02:01:48.988Z,100613.88
2023-04-26T02:06:51.949Z,100609.97
2023-04-26T02:11:54.892Z,100618.19
2023-04-26T02:17:01.970Z,100628.06
2023-04-26T02:22:06.767Z,100626.53
2023-04-26T02:27:09.640Z,100630.94
2023-04-26T02:32:13.522Z,100632.22
2023-04-26T02:37:16.466Z,100622.06
2023-04-26T02:42:19.534Z,100624.16
2023-04-26T02:47:23.152Z,100612.22
2023-04-26T02:52:26.131Z,100607.03
2023-04-26T02:57:29.139Z,100597.88
2023-04-26T03:02:32.083Z,100620.81
2023-04-26T03:07:35.236Z,100615.78
2023-04-26T03:12:38.303Z,100617.06
2023-04-26T03:17:41.421Z,100629.41
2023-04-26T03:22:47.861Z,100628.31
2023-04-26T03:27:50.817Z,100631.31
2023-04-26T03:32:54.239Z,100634.47
2023-04-26T03:37:58.597Z,100621.84
2023-04-26T03:43:03.324Z,100631.72
2023-04-26T03:48:06.341Z,100616.09
2023-04-26T03:53:09.350Z,100619.13
2023-04-26T03:58:13.202Z,100607.50
2023-04-26T04:03:16.509Z,100627.97
2023-04-26T04:08:19.708Z,100616.13
2023-04-26T04:13:23.012Z,100611.69
2023-04-26T04:18:26.730Z,100614.09
2023-04-26T04:23:30.160Z,100607.06
2023-04-26T04:28:34.757Z,100610.88
2023-04-26T04:33:38.045Z,100600.44
2023-04-26T04:38:42.148Z,100611.72
2023-04-26T04:43:46.811Z,100613.00
2023-04-26T04:48:50.111Z,100601.03
2023-04-26T04:53:55.115Z,100605.13
2023-04-26T04:59:19.613Z,100609.25
2023-04-26T05:04:24.425Z,100607.81
2023-04-26T05:09:30.376Z,100603.88
2023-04-26T05:14:33.321Z,100595.78
2023-04-26T05:19:36.199Z,100599.09
2023-04-26T05:24:39.411Z,100602.09
2023-04-26T05:29:42.477Z,100608.97
2023-04-26T05:35:17.388Z,100613.53
2023-04-26T05:40:20.683Z,100609.50
2023-04-26T05:45:23.725Z,100603.16
2023-04-26T05:50:26.728Z,100591.97
2023-04-26T05:55:29.550Z,100593.53
2023-04-26T06:00:33.510Z,100586.19
2023-04-26T06:05:39.068Z,100584.56
2023-04-26T06:10:42.183Z,100579.03
2023-04-26T06:15:45.275Z,100583.59
2023-04-26T06:20:48.243Z,100578.56
2023-04-26T06:25:51.178Z,100573.91
2023-04-26T06:30:54.817Z,100569.91
2023-04-26T06:35:58.160Z,100560.56
2023-04-26T06:41:00.951Z,100564.38
2023-04-26T06:46:04.415Z,100554.88
2023-04-26T06:51:08.182Z,100560.97
2023-04-26T06:56:13.677Z,100560.75
2023-04-26T07:01:16.374Z,100551.66
2023-04-26T07:06:19.562Z,100560.41
2023-04-26T07:11:24.606Z,100565.22
2023-04-26T07:16:28.918Z,100569.69
2023-04-26T07:21:31.725Z,100566.97
2023-04-26T07:26:35.795Z,100568.50
2023-04-26T07:31:38.549Z,100562.66
2023-04-26T07:36:41.346Z,100552.44
2023-04-26T07:41:44.314Z,100567.13
2023-04-26T07:46:47.160Z,100565.81
2023-04-26T07:51:52.181Z,100568.03
2023-04-26T07:56:55.908Z,100571.44
2023-04-26T08:01:58.802Z,100565.47
2023-04-26T08:07:04.564Z,100576.16
2023-04-26T08:12:07.933Z,100570.28
2023-04-26T08:17:10.818Z,100587.50
2023-04-26T08:22:13.635Z,100588.22
2023-04-26T08:27:16.555Z,100579.56
2023-04-26T08:32:19.407Z,100585.28
2023-04-26T08:37:22.638Z,100588.66
2023-04-26T08:42:28.561Z,100586.59
2023-04-26T08:47:57.619Z,100591.47
2023-04-26T08:53:00.387Z,100588.22
2023-04-26T08:58:03.227Z,100579.00
2023-04-26T09:03:06.268Z,100585.16
2023-04-26T09:08:09.900Z,100595.91
2023-04-26T09:13:12.810Z,100591.19
2023-04-26T09:18:23.146Z,100605.00
2023-04-26T09:23:25.892Z,100595.09
2023-04-26T09:28:28.969Z,100603.72
2023-04-26T09:33:31.782Z,100621.44
2023-04-26T09:38:42.695Z,100627.81
2023-04-26T09:43:45.804Z,100638.28
2023-04-26T09:49:01.628Z,100643.97
2023-04-26T09:54:04.725Z,100648.56
2023-04-26T09:59:09.302Z,100634.38
2023-04-26T10:04:12.137Z,100643.94
2023-04-26T10:09:16.294Z,100635.09
2023-04-26T10:14:19.487Z,100642.88
2023-04-26T10:19:22.722Z,100655.75
2023-04-26T10:24:27.153Z,100660.97
2023-04-26T10:29:55.429Z,100674.66
2023-04-26T10:35:18.239Z,100673.91
2023-04-26T10:40:26.088Z,100685.06
2023-04-26T10:45:30.554Z,100686.84
2023-04-26T10:50:33.367Z,100688.75
2023-04-26T10:55:45.208Z,100693.34
2023-04-26T11:01:10.099Z,100715.06
2023-04-26T11:06:16.053Z,100707.78
2023-04-26T11:11:21.691Z,100713.56
2023-04-26T11:16:29.477Z,100717.38
2023-04-26T11:21:33.136Z,100707.97
2023-04-26T11:26:37.007Z,100709.91
2023-04-26T11:31:39.796Z,100721.66
2023-04-26T11:36:42.649Z,100715.44
2023-04-26T11:41:45.725Z,100718.38
2023-04-26T11:46:49.686Z,100717.25
2023-04-26T11:51:52.637Z,100723.69
2023-04-26T11:56:55.616Z,100710.00
2023-04-26T12:01:58.845Z,100722.25
2023-04-26T12:07:04.774Z,100718.53
2023-04-26T12:12:07.718Z,100719.59
2023-04-26T12:17:10.905Z,100713.34
2023-04-26T12:22:22.255Z,100719.25
2023-04-26T12:27:25.070Z,100722.59
2023-04-26T12:32:28.419Z,100717.22
2023-04-26T12:37:31.515Z,100729.09
2023-04-26T12:42:36.463Z,100726.19
2023-04-26T12:47:39.337Z,100733.50
2023-04-26T12:52:43.959Z,100735.38
2023-04-26T12:57:47.194Z,100736.41
2023-04-26T13:02:50.237Z,100733.19
2023-04-26T13:07:53.050Z,100738.53
2023-04-26T13:12:56.315Z,100733.38
2023-04-26T13:17:59.122Z,100732.31
2023-04-26T13:23:02.002Z,100741.31
2023-04-26T13:28:05.189Z,100742.84
2023-04-26T13:33:08.335Z,100762.69
2023-04-26T13:38:12.452Z,100758.41
2023-04-26T13:43:16.218Z,100773.41
2023-04-26T13:48:22.056Z,100788.28
2023-04-26T13:53:24.956Z,100794.63
2023-04-26T13:58:27.815Z,100792.31
2023-04-26T14:03:30.931Z,100791.88
2023-04-26T14:08:33.899Z,100796.41
2023-04-26T14:13:36.734Z,100787.59
2023-04-26T14:18:45.354Z,100788.31
2023-04-26T14:23:48.170Z,100793.09
2023-04-26T14:28:51.144Z,100792.47
2023-04-26T14:33:54.333Z,100785.84
2023-04-26T14:38:57.291Z,100796.53
2023-04-26T14:44:00.150Z,100802.69
2023-04-26T14:49:03.249Z,100796.75
2023-04-26T14:54:06.422Z,100791.78
2023-04-26T14:59:09.184Z,100792.25
2023-04-26T15:04:12.237Z,100793.06
2023-04-26T15:09:15.365Z,100791.97
2023-04-26T15:14:18.058Z,100796.88
2023-04-26T15:19:22.530Z,100797.91
2023-04-26T15:24:26.541Z,100805.69
2023-04-26T15:29:32.182Z,100798.22
2023-04-26T15:34:46.107Z,100802.69
2023-04-26T15:39:48.990Z,100806.03
2023-04-26T15:44:51.780Z,100809.31
2023-04-26T15:49:55.458Z,100812.41
2023-04-26T15:54:58.228Z,100823.28
2023-04-26T16:00:01.205Z,100816.75
2023-04-26T16:05:08.633Z,100810.38
2023-04-26T16:10:14.547Z,100820.50
2023-04-26T16:15:17.467Z,100819.03
2023-04-26T16:20:20.487Z,100825.91
2023-04-26T16:25:24.241Z,100821.75
2023-04-26T16:30:27.297Z,100816.31
2023-04-26T16:35:30.031Z,100812.84
2023-04-26T16:40:33.319Z,100828.44
2023-04-26T16:45:36.419Z,100822.81
2023-04-26T16:50:39.433Z,100836.50
2023-04-26T16:55:42.411Z,100830.31
2023-04-26T17:00:45.445Z,100827.16
2023-04-26T17:05:51.831Z,100824.78
2023-04-26T17:10:54.729Z,100836.81
2023-04-26T17:15:57.854Z,100837.88
2023-04-26T17:21:02.102Z,100832.19
2023-04-26T17:26:04.977Z,100832.41
2023-04-26T17:31:07.902Z,100834.44
2023-04-26T17:36:11.225Z,100842.31
2023-04-26T17:41:14.083Z,100842.16
2023-04-26T17:46:16.953Z,100843.38
2023-04-26T17:51:19.830Z,100848.44
2023-04-26T17:56:23.340Z,100841.25
2023-04-26T18:01:26.861Z,100835.25
2023-04-26T18:06:29.796Z,100837.06
2023-04-26T18:11:32.740Z,100825.00
2023-04-26T18:16:35.627Z,100838.84
2023-04-26T18:21:38.431Z,100841.38
2023-04-26T18:26:41.949Z,100841.41
2023-04-26T18:31:44.794Z,100826.34
2023-04-26T18:36:47.936Z,100823.88
2023-04-26T18:41:52.491Z,100824.06
2023-04-26T18:46:58.192Z,100812.69
2023-04-26T18:52:02.057Z,100818.25
2023-04-26T18:57:05.112Z,100813.97
2023-04-26T19:02:26.689Z,100822.72
2023-04-26T19:07:29.618Z,100821.59
2023-04-26T19:12:32.302Z,100823.53
2023-04-26T19:17:35.206Z,100815.13
2023-04-26T19:22:38.078Z,100819.91
2023-04-26T19:27:41.559Z,100812.56
2023-04-26T19:32:44.362Z,100800.94
2023-04-26T19:37:47.127Z,100786.13
2023-04-26T19:42:50.052Z,100777.63
2023-04-26T19:47:52.901Z,100774.44
2023-04-26T19:52:55.923Z,100776.09
2023-04-26T19:57:59.767Z,100767.78
2023-04-26T20:03:03.237Z,100770.63
2023-04-26T20:08:06.334Z,100764.78
2023-04-26T20:13:09.375Z,100758.56
2023-04-26T20:18:12.388Z,100755.84
2023-04-26T20:23:15.367Z,100761.78
2023-04-26T20:28:18.189Z,100758.28
2023-04-26T20:33:21.611Z,100750.44
2023-04-26T20:38:24.523Z,100745.03
2023-04-26T20:43:27.307Z,100756.84
2023-04-26T20:48:29.966Z,100754.03
2023-04-26T20:53:32.792Z,100754.56
2023-04-26T20:58:35.578Z,100741.56
2023-04-26T21:03:39.450Z,100739.03
2023-04-26T21:08:43.449Z,100738.84
2023-04-26T21:13:47.483Z,100745.44
2023-04-26T21:18:50.318Z,100748.66
2023-04-26T21:23:53.112Z,100737.31
2023-04-26T21:28:56.219Z,100745.16
2023-04-26T21:33:59.320Z,100751.47
2023-04-26T21:39:02.375Z,100744.81
2023-04-26T21:44:05.433Z,100740.25
2023-04-26T21:49:08.644Z,100735.00
2023-04-26T21:54:11.755Z,100743.22
2023-04-26T21:59:15.668Z,100740.31
2023-04-26T22:04:18.750Z,100745.09
2023-04-26T22:09:22.117Z,100746.06
2023-04-26T22:14:25.203Z,100746.66
2023-04-26T22:19:28.003Z,100740.22
2023-04-26T22:24:30.982Z,100735.28
2023-04-26T22:29:34.184Z,100743.03
2023-04-26T22:34:37.055Z,100744.09
2023-04-26T22:39:39.987Z,100730.56
2023-04-26T22:44:42.960Z,100728.16
2023-04-26T22:49:46.183Z,100729.13
2023-04-26T22:54:50.458Z,100711.56
2023-04-26T22:59:53.205Z,100711.03
2023-04-26T23:04:56.223Z,100716.09
2023-04-26T23:09:59.230Z,100718.72
2023-04-26T23:15:03.194Z,100717.44
2023-04-26T23:20:12.548Z,100714.97
2023-04-26T23:25:15.806Z,100715.00
2023-04-26T23:30:19.122Z,100715.72
2023-04-26T23:35:22.283Z,100708.78
2023-04-26T23:40:25.474Z,100713.81
2023-04-26T23:45:28.663Z,100690.81
2023-04-26T23:50:31.547Z,100694.28
2023-04-26T23:55:34.594Z,100703.16
